sensor_id;sensor_type;location;lat;lon;timestamp;P1;durP1;ratioP1;P2;durP2;ratioP2
74102;SDS011;62853;46.166;3.640;2023-04-15T00:01:01;9.68;;;3.97;;
74102;SDS011;62853;46.166;3.640;2023-04-15T00:03:26;7.38;;;3.40;;
74102;SDS011;62853;46.166;3.640;2023-04-15T00:05:53;15.23;;;4.35;;
74102;SDS011;62853;46.166;3.640;2023-04-15T00:08:19;11.77;;;3.72;;
74102;SDS011;62853;46.166;3.640;2023-04-15T00:10:44;7.53;;;3.97;;
74102;SDS011;62853;46.166;3.640;2023-04-15T00:13:10;7.68;;;3.40;;
74102;SDS011;62853;46.166;3.640;2023-04-15T00:15:36;10.98;;;3.55;;
74102;SDS011;62853;46.166;3.640;2023-04-15T00:18:02;8.30;;;3.50;;
74102;SDS011;62853;46.166;3.640;2023-04-15T00:20:28;9.93;;;4.03;;
74102;SDS011;62853;46.166;3.640;2023-04-15T00:22:54;9.38;;;3.63;;
74102;SDS011;62853;46.166;3.640;2023-04-15T00:25:19;13.18;;;4.20;;
74102;SDS011;62853;46.166;3.640;2023-04-15T00:27:44;7.13;;;3.38;;
74102;SDS011;62853;46.166;3.640;2023-04-15T00:30:10;8.13;;;4.03;;
74102;SDS011;62853;46.166;3.640;2023-04-15T00:32:35;10.75;;;3.88;;
74102;SDS011;62853;46.166;3.640;2023-04-15T00:35:01;7.43;;;3.63;;
74102;SDS011;62853;46.166;3.640;2023-04-15T00:37:27;10.35;;;5.00;;
74102;SDS011;62853;46.166;3.640;2023-04-15T00:39:52;9.48;;;4.20;;
74102;SDS011;62853;46.166;3.640;2023-04-15T00:42:17;8.75;;;4.07;;
74102;SDS011;62853;46.166;3.640;2023-04-15T00:44:45;11.13;;;3.95;;
74102;SDS011;62853;46.166;3.640;2023-04-15T00:47:11;5.88;;;4.07;;
74102;SDS011;62853;46.166;3.640;2023-04-15T00:49:36;9.38;;;4.00;;
74102;SDS011;62853;46.166;3.640;2023-04-15T00:52:02;7.22;;;3.72;;
74102;SDS011;62853;46.166;3.640;2023-04-15T00:54:28;11.70;;;3.72;;
74102;SDS011;62853;46.166;3.640;2023-04-15T00:56:53;11.43;;;3.97;;
74102;SDS011;62853;46.166;3.640;2023-04-15T00:59:19;8.75;;;4.90;;
74102;SDS011;62853;46.166;3.640;2023-04-15T01:01:45;8.30;;;4.40;;
74102;SDS011;62853;46.166;3.640;2023-04-15T01:04:11;6.13;;;3.80;;
74102;SDS011;62853;46.166;3.640;2023-04-15T01:06:37;6.82;;;4.43;;
74102;SDS011;62853;46.166;3.640;2023-04-15T01:09:02;9.02;;;4.47;;
74102;SDS011;62853;46.166;3.640;2023-04-15T01:11:27;12.50;;;5.15;;
74102;SDS011;62853;46.166;3.640;2023-04-15T01:13:55;7.93;;;4.63;;
74102;SDS011;62853;46.166;3.640;2023-04-15T01:16:22;12.05;;;5.10;;
74102;SDS011;62853;46.166;3.640;2023-04-15T01:18:48;8.43;;;4.15;;
74102;SDS011;62853;46.166;3.640;2023-04-15T01:21:13;8.88;;;4.95;;
74102;SDS011;62853;46.166;3.640;2023-04-15T01:23:38;11.93;;;4.35;;
74102;SDS011;62853;46.166;3.640;2023-04-15T01:26:05;7.60;;;4.60;;
74102;SDS011;62853;46.166;3.640;2023-04-15T01:28:35;7.88;;;4.55;;
74102;SDS011;62853;46.166;3.640;2023-04-15T01:31:05;10.60;;;5.00;;
74102;SDS011;62853;46.166;3.640;2023-04-15T01:33:38;13.00;;;5.38;;
74102;SDS011;62853;46.166;3.640;2023-04-15T01:36:06;11.77;;;5.70;;
74102;SDS011;62853;46.166;3.640;2023-04-15T01:38:33;11.25;;;6.00;;
74102;SDS011;62853;46.166;3.640;2023-04-15T01:40:59;11.95;;;5.22;;
74102;SDS011;62853;46.166;3.640;2023-04-15T01:43:25;7.00;;;5.05;;
74102;SDS011;62853;46.166;3.640;2023-04-15T01:45:50;10.93;;;5.93;;
74102;SDS011;62853;46.166;3.640;2023-04-15T01:48:16;15.15;;;5.80;;
74102;SDS011;62853;46.166;3.640;2023-04-15T01:50:41;9.73;;;6.13;;
74102;SDS011;62853;46.166;3.640;2023-04-15T01:53:07;16.17;;;6.40;;
74102;SDS011;62853;46.166;3.640;2023-04-15T01:55:33;11.60;;;7.07;;
74102;SDS011;62853;46.166;3.640;2023-04-15T01:57:59;14.70;;;6.97;;
74102;SDS011;62853;46.166;3.640;2023-04-15T02:00:25;13.23;;;6.32;;
74102;SDS011;62853;46.166;3.640;2023-04-15T02:02:51;12.77;;;7.65;;
74102;SDS011;62853;46.166;3.640;2023-04-15T02:05:17;11.25;;;7.20;;
74102;SDS011;62853;46.166;3.640;2023-04-15T02:07:42;14.15;;;6.70;;
74102;SDS011;62853;46.166;3.640;2023-04-15T02:10:08;14.55;;;6.88;;
74102;SDS011;62853;46.166;3.640;2023-04-15T02:12:34;16.30;;;7.05;;
74102;SDS011;62853;46.166;3.640;2023-04-15T02:15:00;15.98;;;7.85;;
74102;SDS011;62853;46.166;3.640;2023-04-15T02:17:26;11.70;;;7.55;;
74102;SDS011;62853;46.166;3.640;2023-04-15T02:19:51;11.25;;;7.45;;
74102;SDS011;62853;46.166;3.640;2023-04-15T02:22:16;14.98;;;7.75;;
74102;SDS011;62853;46.166;3.640;2023-04-15T02:24:42;16.27;;;7.45;;
74102;SDS011;62853;46.166;3.640;2023-04-15T02:27:09;16.15;;;8.15;;
74102;SDS011;62853;46.166;3.640;2023-04-15T02:29:35;14.65;;;7.45;;
74102;SDS011;62853;46.166;3.640;2023-04-15T02:32:00;13.90;;;7.63;;
74102;SDS011;62853;46.166;3.640;2023-04-15T02:34:26;13.48;;;7.07;;
74102;SDS011;62853;46.166;3.640;2023-04-15T02:36:51;15.75;;;7.57;;
74102;SDS011;62853;46.166;3.640;2023-04-15T02:39:21;13.40;;;7.43;;
74102;SDS011;62853;46.166;3.640;2023-04-15T02:41:47;16.73;;;8.65;;
74102;SDS011;62853;46.166;3.640;2023-04-15T02:44:16;12.60;;;7.97;;
74102;SDS011;62853;46.166;3.640;2023-04-15T02:46:44;17.95;;;8.23;;
74102;SDS011;62853;46.166;3.640;2023-04-15T02:49:14;13.85;;;8.23;;
74102;SDS011;62853;46.166;3.640;2023-04-15T02:51:40;17.23;;;8.23;;
74102;SDS011;62853;46.166;3.640;2023-04-15T02:54:06;15.13;;;8.25;;
74102;SDS011;62853;46.166;3.640;2023-04-15T02:56:31;16.52;;;7.95;;
74102;SDS011;62853;46.166;3.640;2023-04-15T02:58:57;14.98;;;8.05;;
74102;SDS011;62853;46.166;3.640;2023-04-15T03:01:22;18.63;;;9.15;;
74102;SDS011;62853;46.166;3.640;2023-04-15T03:03:48;17.73;;;8.40;;
74102;SDS011;62853;46.166;3.640;2023-04-15T03:06:13;13.57;;;7.57;;
74102;SDS011;62853;46.166;3.640;2023-04-15T03:08:38;20.08;;;8.68;;
74102;SDS011;62853;46.166;3.640;2023-04-15T03:11:04;16.02;;;7.90;;
74102;SDS011;62853;46.166;3.640;2023-04-15T03:13:30;12.98;;;7.43;;
74102;SDS011;62853;46.166;3.640;2023-04-15T03:15:55;14.25;;;8.23;;
74102;SDS011;62853;46.166;3.640;2023-04-15T03:18:21;15.02;;;8.65;;
74102;SDS011;62853;46.166;3.640;2023-04-15T03:20:47;16.35;;;8.80;;
74102;SDS011;62853;46.166;3.640;2023-04-15T03:23:12;15.82;;;8.15;;
74102;SDS011;62853;46.166;3.640;2023-04-15T03:25:38;16.20;;;8.50;;
74102;SDS011;62853;46.166;3.640;2023-04-15T03:28:03;15.23;;;8.38;;
74102;SDS011;62853;46.166;3.640;2023-04-15T03:30:29;21.00;;;9.00;;
74102;SDS011;62853;46.166;3.640;2023-04-15T03:32:54;17.30;;;8.65;;
74102;SDS011;62853;46.166;3.640;2023-04-15T03:35:19;13.40;;;7.63;;
74102;SDS011;62853;46.166;3.640;2023-04-15T03:37:45;19.95;;;8.40;;
74102;SDS011;62853;46.166;3.640;2023-04-15T03:40:10;13.90;;;8.40;;
74102;SDS011;62853;46.166;3.640;2023-04-15T03:42:36;17.63;;;8.15;;
74102;SDS011;62853;46.166;3.640;2023-04-15T03:45:01;13.85;;;8.13;;
74102;SDS011;62853;46.166;3.640;2023-04-15T03:47:28;15.70;;;8.43;;
74102;SDS011;62853;46.166;3.640;2023-04-15T03:49:53;15.07;;;8.25;;
74102;SDS011;62853;46.166;3.640;2023-04-15T03:52:19;14.93;;;8.18;;
74102;SDS011;62853;46.166;3.640;2023-04-15T03:54:44;14.20;;;8.05;;
74102;SDS011;62853;46.166;3.640;2023-04-15T03:57:09;16.63;;;8.48;;
74102;SDS011;62853;46.166;3.640;2023-04-15T03:59:35;16.65;;;7.75;;
74102;SDS011;62853;46.166;3.640;2023-04-15T04:02:00;14.32;;;8.38;;
74102;SDS011;62853;46.166;3.640;2023-04-15T04:04:26;16.48;;;8.95;;
74102;SDS011;62853;46.166;3.640;2023-04-15T04:06:51;15.05;;;8.20;;
74102;SDS011;62853;46.166;3.640;2023-04-15T04:09:16;16.25;;;8.25;;
74102;SDS011;62853;46.166;3.640;2023-04-15T04:11:42;14.98;;;8.50;;
74102;SDS011;62853;46.166;3.640;2023-04-15T04:14:07;16.23;;;9.27;;
74102;SDS011;62853;46.166;3.640;2023-04-15T04:16:33;14.32;;;8.13;;
74102;SDS011;62853;46.166;3.640;2023-04-15T04:18:58;17.55;;;8.10;;
74102;SDS011;62853;46.166;3.640;2023-04-15T04:21:23;13.48;;;8.15;;
74102;SDS011;62853;46.166;3.640;2023-04-15T04:23:49;15.25;;;8.20;;
74102;SDS011;62853;46.166;3.640;2023-04-15T04:26:14;13.52;;;8.10;;
74102;SDS011;62853;46.166;3.640;2023-04-15T04:28:40;15.05;;;8.32;;
74102;SDS011;62853;46.166;3.640;2023-04-15T04:31:05;14.35;;;7.55;;
74102;SDS011;62853;46.166;3.640;2023-04-15T04:33:32;13.48;;;7.68;;
74102;SDS011;62853;46.166;3.640;2023-04-15T04:35:57;15.90;;;8.85;;
74102;SDS011;62853;46.166;3.640;2023-04-15T04:38:23;18.88;;;8.30;;
74102;SDS011;62853;46.166;3.640;2023-04-15T04:40:48;14.10;;;7.75;;
74102;SDS011;62853;46.166;3.640;2023-04-15T04:43:13;13.10;;;7.68;;
74102;SDS011;62853;46.166;3.640;2023-04-15T04:45:39;19.70;;;8.13;;
74102;SDS011;62853;46.166;3.640;2023-04-15T04:48:05;15.10;;;7.72;;
74102;SDS011;62853;46.166;3.640;2023-04-15T04:50:32;13.77;;;8.00;;
74102;SDS011;62853;46.166;3.640;2023-04-15T04:52:59;15.35;;;8.25;;
74102;SDS011;62853;46.166;3.640;2023-04-15T04:55:24;17.25;;;8.50;;
74102;SDS011;62853;46.166;3.640;2023-04-15T04:57:51;14.10;;;7.72;;
74102;SDS011;62853;46.166;3.640;2023-04-15T05:00:16;14.27;;;8.23;;
74102;SDS011;62853;46.166;3.640;2023-04-15T05:02:41;14.32;;;8.07;;
74102;SDS011;62853;46.166;3.640;2023-04-15T05:05:08;14.63;;;8.30;;
74102;SDS011;62853;46.166;3.640;2023-04-15T05:07:34;13.38;;;7.95;;
74102;SDS011;62853;46.166;3.640;2023-04-15T05:09:59;16.75;;;7.85;;
74102;SDS011;62853;46.166;3.640;2023-04-15T05:12:25;15.20;;;7.55;;
74102;SDS011;62853;46.166;3.640;2023-04-15T05:14:50;12.85;;;8.05;;
74102;SDS011;62853;46.166;3.640;2023-04-15T05:17:16;15.60;;;7.75;;
74102;SDS011;62853;46.166;3.640;2023-04-15T05:19:41;13.18;;;7.97;;
74102;SDS011;62853;46.166;3.640;2023-04-15T05:22:07;15.30;;;8.35;;
74102;SDS011;62853;46.166;3.640;2023-04-15T05:24:32;14.63;;;8.02;;
74102;SDS011;62853;46.166;3.640;2023-04-15T05:26:57;16.45;;;8.07;;
74102;SDS011;62853;46.166;3.640;2023-04-15T05:29:23;15.95;;;8.45;;
74102;SDS011;62853;46.166;3.640;2023-04-15T05:31:48;17.55;;;9.25;;
74102;SDS011;62853;46.166;3.640;2023-04-15T05:34:13;15.27;;;8.15;;
74102;SDS011;62853;46.166;3.640;2023-04-15T05:36:40;16.98;;;8.40;;
74102;SDS011;62853;46.166;3.640;2023-04-15T05:39:06;14.38;;;8.40;;
74102;SDS011;62853;46.166;3.640;2023-04-15T05:41:31;13.52;;;7.05;;
74102;SDS011;62853;46.166;3.640;2023-04-15T05:43:57;15.43;;;8.63;;
74102;SDS011;62853;46.166;3.640;2023-04-15T05:46:22;17.20;;;8.65;;
74102;SDS011;62853;46.166;3.640;2023-04-15T05:48:47;13.20;;;8.18;;
74102;SDS011;62853;46.166;3.640;2023-04-15T05:51:13;15.18;;;8.20;;
74102;SDS011;62853;46.166;3.640;2023-04-15T05:53:39;21.15;;;8.57;;
74102;SDS011;62853;46.166;3.640;2023-04-15T05:56:05;17.70;;;8.60;;
74102;SDS011;62853;46.166;3.640;2023-04-15T05:58:31;15.88;;;8.60;;
74102;SDS011;62853;46.166;3.640;2023-04-15T06:00:57;16.48;;;8.07;;
74102;SDS011;62853;46.166;3.640;2023-04-15T06:03:22;19.58;;;9.07;;
74102;SDS011;62853;46.166;3.640;2023-04-15T06:05:48;14.48;;;8.95;;
74102;SDS011;62853;46.166;3.640;2023-04-15T06:08:13;15.80;;;8.55;;
74102;SDS011;62853;46.166;3.640;2023-04-15T06:10:38;18.30;;;9.32;;
74102;SDS011;62853;46.166;3.640;2023-04-15T06:13:04;15.05;;;9.00;;
74102;SDS011;62853;46.166;3.640;2023-04-15T06:15:30;16.23;;;8.77;;
74102;SDS011;62853;46.166;3.640;2023-04-15T06:17:55;13.77;;;8.75;;
74102;SDS011;62853;46.166;3.640;2023-04-15T06:20:21;18.15;;;8.88;;
74102;SDS011;62853;46.166;3.640;2023-04-15T06:22:46;13.90;;;8.93;;
74102;SDS011;62853;46.166;3.640;2023-04-15T06:25:12;18.35;;;9.82;;
74102;SDS011;62853;46.166;3.640;2023-04-15T06:27:38;13.80;;;8.55;;
74102;SDS011;62853;46.166;3.640;2023-04-15T06:30:03;14.93;;;9.00;;
74102;SDS011;62853;46.166;3.640;2023-04-15T06:32:29;14.25;;;9.18;;
74102;SDS011;62853;46.166;3.640;2023-04-15T06:34:55;13.98;;;7.85;;
74102;SDS011;62853;46.166;3.640;2023-04-15T06:37:21;13.32;;;7.65;;
74102;SDS011;62853;46.166;3.640;2023-04-15T06:39:46;11.93;;;7.28;;
74102;SDS011;62853;46.166;3.640;2023-04-15T06:42:12;12.20;;;7.22;;
74102;SDS011;62853;46.166;3.640;2023-04-15T06:44:37;12.15;;;8.60;;
74102;SDS011;62853;46.166;3.640;2023-04-15T06:47:02;10.88;;;8.07;;
74102;SDS011;62853;46.166;3.640;2023-04-15T06:49:28;10.35;;;9.10;;
74102;SDS011;62853;46.166;3.640;2023-04-15T06:51:53;12.05;;;9.70;;
74102;SDS011;62853;46.166;3.640;2023-04-15T06:54:19;11.75;;;9.98;;
74102;SDS011;62853;46.166;3.640;2023-04-15T06:56:45;12.80;;;9.60;;
74102;SDS011;62853;46.166;3.640;2023-04-15T06:59:11;12.70;;;10.55;;
74102;SDS011;62853;46.166;3.640;2023-04-15T07:01:36;10.55;;;9.55;;
74102;SDS011;62853;46.166;3.640;2023-04-15T07:04:02;11.25;;;9.55;;
74102;SDS011;62853;46.166;3.640;2023-04-15T07:06:27;11.70;;;9.23;;
74102;SDS011;62853;46.166;3.640;2023-04-15T07:08:53;9.90;;;8.93;;
74102;SDS011;62853;46.166;3.640;2023-04-15T07:11:19;10.60;;;9.50;;
74102;SDS011;62853;46.166;3.640;2023-04-15T07:13:45;9.90;;;8.93;;
74102;SDS011;62853;46.166;3.640;2023-04-15T07:16:10;10.40;;;9.38;;
74102;SDS011;62853;46.166;3.640;2023-04-15T07:18:36;9.63;;;8.57;;
74102;SDS011;62853;46.166;3.640;2023-04-15T07:21:01;10.00;;;8.57;;
74102;SDS011;62853;46.166;3.640;2023-04-15T07:23:27;9.18;;;8.27;;
74102;SDS011;62853;46.166;3.640;2023-04-15T07:25:53;9.55;;;8.57;;
74102;SDS011;62853;46.166;3.640;2023-04-15T07:28:18;8.88;;;8.00;;
74102;SDS011;62853;46.166;3.640;2023-04-15T07:30:44;9.10;;;7.93;;
74102;SDS011;62853;46.166;3.640;2023-04-15T07:33:10;9.88;;;8.48;;
74102;SDS011;62853;46.166;3.640;2023-04-15T07:35:36;9.43;;;8.40;;
74102;SDS011;62853;46.166;3.640;2023-04-15T07:38:01;9.13;;;8.20;;
74102;SDS011;62853;46.166;3.640;2023-04-15T07:40:27;8.32;;;7.55;;
74102;SDS011;62853;46.166;3.640;2023-04-15T07:42:53;8.52;;;7.57;;
74102;SDS011;62853;46.166;3.640;2023-04-15T07:45:20;8.10;;;7.30;;
74102;SDS011;62853;46.166;3.640;2023-04-15T07:47:45;8.57;;;7.78;;
74102;SDS011;62853;46.166;3.640;2023-04-15T07:50:11;8.45;;;7.63;;
74102;SDS011;62853;46.166;3.640;2023-04-15T07:52:36;8.27;;;7.25;;
74102;SDS011;62853;46.166;3.640;2023-04-15T07:55:05;8.52;;;6.80;;
74102;SDS011;62853;46.166;3.640;2023-04-15T07:57:32;8.45;;;7.10;;
74102;SDS011;62853;46.166;3.640;2023-04-15T07:59:59;7.50;;;6.70;;
74102;SDS011;62853;46.166;3.640;2023-04-15T08:02:24;7.43;;;6.63;;
74102;SDS011;62853;46.166;3.640;2023-04-15T08:04:50;7.28;;;6.53;;
74102;SDS011;62853;46.166;3.640;2023-04-15T08:07:17;7.00;;;6.40;;
74102;SDS011;62853;46.166;3.640;2023-04-15T08:09:42;7.20;;;6.50;;
74102;SDS011;62853;46.166;3.640;2023-04-15T08:12:08;6.70;;;6.03;;
74102;SDS011;62853;46.166;3.640;2023-04-15T08:14:36;6.63;;;6.03;;
74102;SDS011;62853;46.166;3.640;2023-04-15T08:17:02;6.57;;;5.97;;
74102;SDS011;62853;46.166;3.640;2023-04-15T08:19:28;7.32;;;6.63;;
74102;SDS011;62853;46.166;3.640;2023-04-15T08:21:53;6.97;;;6.25;;
74102;SDS011;62853;46.166;3.640;2023-04-15T08:24:20;6.72;;;6.03;;
74102;SDS011;62853;46.166;3.640;2023-04-15T08:26:45;6.63;;;6.03;;
74102;SDS011;62853;46.166;3.640;2023-04-15T08:29:11;7.93;;;6.43;;
74102;SDS011;62853;46.166;3.640;2023-04-15T08:31:36;7.47;;;6.78;;
74102;SDS011;62853;46.166;3.640;2023-04-15T08:34:02;8.95;;;7.28;;
74102;SDS011;62853;46.166;3.640;2023-04-15T08:36:28;7.28;;;6.57;;
74102;SDS011;62853;46.166;3.640;2023-04-15T08:38:53;7.38;;;6.68;;
74102;SDS011;62853;46.166;3.640;2023-04-15T08:41:23;8.38;;;7.57;;
74102;SDS011;62853;46.166;3.640;2023-04-15T08:44:02;9.52;;;8.52;;
74102;SDS011;62853;46.166;3.640;2023-04-15T08:46:30;8.60;;;7.80;;
74102;SDS011;62853;46.166;3.640;2023-04-15T08:48:58;8.57;;;7.53;;
74102;SDS011;62853;46.166;3.640;2023-04-15T08:51:24;8.60;;;7.32;;
74102;SDS011;62853;46.166;3.640;2023-04-15T08:53:50;7.30;;;6.60;;
74102;SDS011;62853;46.166;3.640;2023-04-15T08:56:16;8.18;;;6.30;;
74102;SDS011;62853;46.166;3.640;2023-04-15T08:58:43;8.20;;;6.45;;
74102;SDS011;62853;46.166;3.640;2023-04-15T09:01:10;11.35;;;6.28;;
74102;SDS011;62853;46.166;3.640;2023-04-15T09:03:37;6.50;;;5.40;;
74102;SDS011;62853;46.166;3.640;2023-04-15T09:06:06;8.85;;;5.40;;
74102;SDS011;62853;46.166;3.640;2023-04-15T09:08:32;6.28;;;5.00;;
74102;SDS011;62853;46.166;3.640;2023-04-15T09:11:01;6.65;;;5.68;;
74102;SDS011;62853;46.166;3.640;2023-04-15T09:13:29;8.98;;;5.65;;
74102;SDS011;62853;46.166;3.640;2023-04-15T09:15:55;11.02;;;6.38;;
74102;SDS011;62853;46.166;3.640;2023-04-15T09:18:40;8.63;;;6.47;;
74102;SDS011;62853;46.166;3.640;2023-04-15T09:21:06;8.85;;;6.03;;
74102;SDS011;62853;46.166;3.640;2023-04-15T09:23:36;9.20;;;5.93;;
74102;SDS011;62853;46.166;3.640;2023-04-15T09:26:03;9.73;;;6.47;;
74102;SDS011;62853;46.166;3.640;2023-04-15T09:28:29;7.88;;;6.13;;
74102;SDS011;62853;46.166;3.640;2023-04-15T09:30:56;7.13;;;6.43;;
74102;SDS011;62853;46.166;3.640;2023-04-15T09:33:23;7.72;;;5.85;;
74102;SDS011;62853;46.166;3.640;2023-04-15T09:35:56;7.15;;;6.45;;
74102;SDS011;62853;46.166;3.640;2023-04-15T09:38:25;10.07;;;6.55;;
74102;SDS011;62853;46.166;3.640;2023-04-15T09:40:51;10.30;;;6.45;;
74102;SDS011;62853;46.166;3.640;2023-04-15T09:43:16;7.30;;;5.55;;
74102;SDS011;62853;46.166;3.640;2023-04-15T09:45:46;6.35;;;5.75;;
74102;SDS011;62853;46.166;3.640;2023-04-15T09:48:14;6.57;;;4.63;;
74102;SDS011;62853;46.166;3.640;2023-04-15T09:50:48;6.38;;;5.15;;
74102;SDS011;62853;46.166;3.640;2023-04-15T09:53:18;6.95;;;5.60;;
74102;SDS011;62853;46.166;3.640;2023-04-15T09:56:05;5.88;;;4.93;;
74102;SDS011;62853;46.166;3.640;2023-04-15T09:58:32;6.82;;;5.80;;
74102;SDS011;62853;46.166;3.640;2023-04-15T10:01:01;4.65;;;4.10;;
74102;SDS011;62853;46.166;3.640;2023-04-15T10:03:28;7.50;;;4.40;;
74102;SDS011;62853;46.166;3.640;2023-04-15T10:05:56;4.60;;;4.20;;
74102;SDS011;62853;46.166;3.640;2023-04-15T10:08:23;4.97;;;4.50;;
74102;SDS011;62853;46.166;3.640;2023-04-15T10:10:53;5.40;;;4.90;;
74102;SDS011;62853;46.166;3.640;2023-04-15T10:13:20;5.63;;;4.82;;
74102;SDS011;62853;46.166;3.640;2023-04-15T10:16:06;7.88;;;5.20;;
74102;SDS011;62853;46.166;3.640;2023-04-15T10:18:37;6.30;;;4.80;;
74102;SDS011;62853;46.166;3.640;2023-04-15T10:21:04;7.45;;;5.15;;
74102;SDS011;62853;46.166;3.640;2023-04-15T10:23:32;7.07;;;5.68;;
74102;SDS011;62853;46.166;3.640;2023-04-15T10:25:58;6.60;;;5.93;;
74102;SDS011;62853;46.166;3.640;2023-04-15T10:28:24;6.40;;;5.30;;
74102;SDS011;62853;46.166;3.640;2023-04-15T10:30:50;6.60;;;5.22;;
74102;SDS011;62853;46.166;3.640;2023-04-15T10:33:18;6.93;;;5.88;;
74102;SDS011;62853;46.166;3.640;2023-04-15T10:35:45;5.95;;;5.18;;
74102;SDS011;62853;46.166;3.640;2023-04-15T10:46:18;6.20;;;4.55;;
74102;SDS011;62853;46.166;3.640;2023-04-15T10:49:16;5.00;;;4.47;;
74102;SDS011;62853;46.166;3.640;2023-04-15T10:51:51;4.53;;;3.90;;
74102;SDS011;62853;46.166;3.640;2023-04-15T10:59:27;5.38;;;3.63;;
74102;SDS011;62853;46.166;3.640;2023-04-15T11:01:54;5.95;;;3.83;;
74102;SDS011;62853;46.166;3.640;2023-04-15T11:07:34;4.90;;;4.40;;
74102;SDS011;62853;46.166;3.640;2023-04-15T11:10:00;5.10;;;3.95;;
74102;SDS011;62853;46.166;3.640;2023-04-15T11:12:33;6.45;;;3.92;;
74102;SDS011;62853;46.166;3.640;2023-04-15T11:18:24;4.15;;;3.17;;
74102;SDS011;62853;46.166;3.640;2023-04-15T11:20:51;6.35;;;3.17;;
74102;SDS011;62853;46.166;3.640;2023-04-15T11:23:26;3.78;;;2.85;;
74102;SDS011;62853;46.166;3.640;2023-04-15T11:26:10;4.60;;;2.33;;
74102;SDS011;62853;46.166;3.640;2023-04-15T11:28:36;3.85;;;2.72;;
74102;SDS011;62853;46.166;3.640;2023-04-15T11:31:07;4.72;;;2.50;;
74102;SDS011;62853;46.166;3.640;2023-04-15T11:33:53;3.22;;;2.88;;
74102;SDS011;62853;46.166;3.640;2023-04-15T11:36:22;4.07;;;3.00;;
74102;SDS011;62853;46.166;3.640;2023-04-15T11:38:49;5.82;;;3.40;;
74102;SDS011;62853;46.166;3.640;2023-04-15T11:41:14;3.88;;;3.30;;
74102;SDS011;62853;46.166;3.640;2023-04-15T11:43:44;5.22;;;3.20;;
74102;SDS011;62853;46.166;3.640;2023-04-15T11:46:10;4.10;;;2.97;;
74102;SDS011;62853;46.166;3.640;2023-04-15T11:48:35;4.45;;;3.20;;
74102;SDS011;62853;46.166;3.640;2023-04-15T11:51:05;3.85;;;3.13;;
74102;SDS011;62853;46.166;3.640;2023-04-15T11:56:06;4.55;;;3.60;;
74102;SDS011;62853;46.166;3.640;2023-04-15T11:58:33;4.88;;;3.15;;
74102;SDS011;62853;46.166;3.640;2023-04-15T12:01:02;3.83;;;3.38;;
74102;SDS011;62853;46.166;3.640;2023-04-15T12:06:14;4.63;;;3.35;;
74102;SDS011;62853;46.166;3.640;2023-04-15T12:08:55;5.10;;;3.30;;
74102;SDS011;62853;46.166;3.640;2023-04-15T12:14:11;3.83;;;2.95;;
74102;SDS011;62853;46.166;3.640;2023-04-15T12:16:52;3.22;;;2.80;;
74102;SDS011;62853;46.166;3.640;2023-04-15T12:19:29;3.25;;;2.80;;
74102;SDS011;62853;46.166;3.640;2023-04-15T12:21:59;5.63;;;3.08;;
74102;SDS011;62853;46.166;3.640;2023-04-15T12:24:26;4.78;;;3.17;;
74102;SDS011;62853;46.166;3.640;2023-04-15T12:26:55;4.45;;;3.55;;
74102;SDS011;62853;46.166;3.640;2023-04-15T12:29:28;3.97;;;3.30;;
74102;SDS011;62853;46.166;3.640;2023-04-15T12:31:55;3.80;;;3.45;;
74102;SDS011;62853;46.166;3.640;2023-04-15T12:34:30;3.88;;;3.40;;
74102;SDS011;62853;46.166;3.640;2023-04-15T12:37:01;5.07;;;3.13;;
74102;SDS011;62853;46.166;3.640;2023-04-15T12:39:29;2.53;;;2.30;;
74102;SDS011;62853;46.166;3.640;2023-04-15T12:41:56;3.95;;;2.60;;
74102;SDS011;62853;46.166;3.640;2023-04-15T12:44:23;4.03;;;2.42;;
74102;SDS011;62853;46.166;3.640;2023-04-15T12:46:48;4.15;;;2.70;;
74102;SDS011;62853;46.166;3.640;2023-04-15T12:49:15;3.60;;;3.10;;
74102;SDS011;62853;46.166;3.640;2023-04-15T12:51:43;3.60;;;3.03;;
74102;SDS011;62853;46.166;3.640;2023-04-15T12:54:08;3.92;;;3.40;;
74102;SDS011;62853;46.166;3.640;2023-04-15T12:56:34;4.97;;;2.92;;
74102;SDS011;62853;46.166;3.640;2023-04-15T12:58:59;4.35;;;2.97;;
74102;SDS011;62853;46.166;3.640;2023-04-15T13:01:25;4.03;;;2.92;;
74102;SDS011;62853;46.166;3.640;2023-04-15T13:03:50;5.15;;;2.97;;
74102;SDS011;62853;46.166;3.640;2023-04-15T13:06:16;3.38;;;2.92;;
74102;SDS011;62853;46.166;3.640;2023-04-15T13:08:41;4.00;;;3.20;;
74102;SDS011;62853;46.166;3.640;2023-04-15T13:11:07;5.38;;;3.60;;
74102;SDS011;62853;46.166;3.640;2023-04-15T13:13:32;3.60;;;3.05;;
74102;SDS011;62853;46.166;3.640;2023-04-15T13:15:58;4.22;;;2.85;;
74102;SDS011;62853;46.166;3.640;2023-04-15T13:18:24;3.97;;;3.20;;
74102;SDS011;62853;46.166;3.640;2023-04-15T13:20:49;3.22;;;2.90;;
74102;SDS011;62853;46.166;3.640;2023-04-15T13:23:15;4.30;;;3.33;;
74102;SDS011;62853;46.166;3.640;2023-04-15T13:25:41;5.15;;;3.33;;
74102;SDS011;62853;46.166;3.640;2023-04-15T13:28:06;5.43;;;3.28;;
74102;SDS011;62853;46.166;3.640;2023-04-15T13:30:32;5.88;;;2.75;;
74102;SDS011;62853;46.166;3.640;2023-04-15T13:32:57;3.08;;;2.42;;
74102;SDS011;62853;46.166;3.640;2023-04-15T13:35:22;2.90;;;2.30;;
74102;SDS011;62853;46.166;3.640;2023-04-15T13:37:48;3.97;;;2.55;;
74102;SDS011;62853;46.166;3.640;2023-04-15T13:40:13;3.28;;;2.42;;
74102;SDS011;62853;46.166;3.640;2023-04-15T13:42:39;3.38;;;2.35;;
74102;SDS011;62853;46.166;3.640;2023-04-15T13:45:05;2.88;;;2.03;;
74102;SDS011;62853;46.166;3.640;2023-04-15T13:47:31;7.40;;;2.30;;
74102;SDS011;62853;46.166;3.640;2023-04-15T13:49:56;4.25;;;2.35;;
74102;SDS011;62853;46.166;3.640;2023-04-15T13:52:22;3.75;;;2.28;;
74102;SDS011;62853;46.166;3.640;2023-04-15T13:54:47;3.63;;;2.20;;
74102;SDS011;62853;46.166;3.640;2023-04-15T13:57:13;4.53;;;2.10;;
74102;SDS011;62853;46.166;3.640;2023-04-15T13:59:38;3.15;;;2.17;;
74102;SDS011;62853;46.166;3.640;2023-04-15T14:02:04;3.38;;;2.60;;
74102;SDS011;62853;46.166;3.640;2023-04-15T14:04:30;4.65;;;2.30;;
74102;SDS011;62853;46.166;3.640;2023-04-15T14:06:55;3.05;;;2.38;;
74102;SDS011;62853;46.166;3.640;2023-04-15T14:09:21;2.50;;;2.20;;
74102;SDS011;62853;46.166;3.640;2023-04-15T14:11:48;6.13;;;2.50;;
74102;SDS011;62853;46.166;3.640;2023-04-15T14:14:16;3.40;;;2.30;;
74102;SDS011;62853;46.166;3.640;2023-04-15T14:16:42;3.72;;;2.20;;
74102;SDS011;62853;46.166;3.640;2023-04-15T14:19:08;5.15;;;2.20;;
74102;SDS011;62853;46.166;3.640;2023-04-15T14:21:33;3.10;;;2.00;;
74102;SDS011;62853;46.166;3.640;2023-04-15T14:23:58;4.97;;;2.63;;
74102;SDS011;62853;46.166;3.640;2023-04-15T14:26:24;4.53;;;2.55;;
74102;SDS011;62853;46.166;3.640;2023-04-15T14:28:50;5.28;;;2.45;;
74102;SDS011;62853;46.166;3.640;2023-04-15T14:31:15;4.53;;;2.28;;
74102;SDS011;62853;46.166;3.640;2023-04-15T14:33:41;3.17;;;2.30;;
74102;SDS011;62853;46.166;3.640;2023-04-15T14:36:07;3.10;;;1.75;;
74102;SDS011;62853;46.166;3.640;2023-04-15T14:38:34;3.83;;;2.15;;
74102;SDS011;62853;46.166;3.640;2023-04-15T14:41:02;4.78;;;1.92;;
74102;SDS011;62853;46.166;3.640;2023-04-15T14:43:28;4.82;;;2.10;;
74102;SDS011;62853;46.166;3.640;2023-04-15T14:45:54;3.28;;;1.50;;
74102;SDS011;62853;46.166;3.640;2023-04-15T14:48:19;3.65;;;1.80;;
74102;SDS011;62853;46.166;3.640;2023-04-15T14:50:45;4.85;;;1.50;;
74102;SDS011;62853;46.166;3.640;2023-04-15T14:53:10;5.15;;;1.67;;
74102;SDS011;62853;46.166;3.640;2023-04-15T14:55:36;3.08;;;1.75;;
74102;SDS011;62853;46.166;3.640;2023-04-15T14:58:01;4.80;;;1.52;;
74102;SDS011;62853;46.166;3.640;2023-04-15T15:00:27;4.22;;;1.83;;
74102;SDS011;62853;46.166;3.640;2023-04-15T15:02:52;2.80;;;1.60;;
74102;SDS011;62853;46.166;3.640;2023-04-15T15:05:17;3.78;;;1.60;;
74102;SDS011;62853;46.166;3.640;2023-04-15T15:07:43;2.45;;;1.40;;